Time;durP1;ratioP1;P1;durP2;ratioP2;P2;SDS_P1;SDS_P2;PMS_P1;PMS_P2;Temp;Humidity;BMP_temperature;BMP_pressure;BME280_temperature;BME280_humidity;BME280_pressure;Samples;Min_cycle;Max_cycle;Signal;HPM_P1;HPM_P2
2023/11/10 00:02:39;;;;;;;11.63;6.10;;;7.90;99.90;;;;;;4407137;28;656192;-74
2023/11/10 00:05:28;;;;;;;14.47;6.90;;;7.90;99.90;;;;;;4424895;28;655735;-75
2023/11/10 00:08:15;;;;;;;13.73;5.97;;;7.80;99.90;;;;;;4398852;28;657389;-74
2023/11/10 00:11:03;;;;;;;11.73;5.73;;;7.70;99.90;;;;;;4404094;28;657145;-74
2023/11/10 00:13:50;;;;;;;12.43;5.73;;;7.70;99.90;;;;;;4422634;28;656950;-75
2023/11/10 00:16:38;;;;;;;13.23;6.33;;;7.70;99.90;;;;;;4412534;28;656971;-74
2023/11/10 00:19:26;;;;;;;14.90;6.00;;;7.70;99.90;;;;;;4423355;28;657767;-74
2023/11/10 00:22:13;;;;;;;20.25;5.30;;;7.70;99.90;;;;;;4404471;28;657432;-74
2023/11/10 00:25:01;;;;;;;11.30;5.70;;;7.70;99.90;;;;;;4427101;28;657468;-74
2023/11/10 00:27:48;;;;;;;12.30;5.50;;;7.70;99.90;;;;;;4404679;28;656746;-74
2023/11/10 00:30:36;;;;;;;11.03;5.73;;;7.60;99.90;;;;;;4419536;28;657365;-74
2023/11/10 00:33:24;;;;;;;11.27;6.33;;;7.60;99.90;;;;;;4408098;28;656840;-74
2023/11/10 00:36:13;;;;;;;16.37;6.50;;;7.50;99.90;;;;;;4435952;28;656345;-74
2023/11/10 00:39:00;;;;;;;18.80;7.40;;;7.50;99.90;;;;;;4399513;28;657147;-74
2023/11/10 00:41:48;;;;;;;13.67;7.07;;;7.50;99.90;;;;;;4409428;28;657861;-74
2023/11/10 00:44:35;;;;;;;16.67;7.97;;;7.40;99.90;;;;;;4428109;28;657155;-74
2023/11/10 00:47:23;;;;;;;16.77;7.97;;;7.40;99.90;;;;;;4425570;28;656325;-74
2023/11/10 00:50:11;;;;;;;16.97;8.03;;;7.30;99.90;;;;;;4431229;28;657890;-75
2023/11/10 00:53:00;;;;;;;14.23;6.97;;;7.20;99.90;;;;;;4401701;28;656410;-74
2023/11/10 00:55:48;;;;;;;13.70;6.78;;;7.20;99.90;;;;;;4414016;28;656395;-74
2023/11/10 00:58:35;;;;;;;12.13;6.50;;;7.20;99.90;;;;;;4423799;28;658063;-74
2023/11/10 01:01:22;;;;;;;12.77;6.07;;;7.20;99.90;;;;;;4421246;28;656883;-74
2023/11/10 01:04:10;;;;;;;12.00;6.07;;;7.20;99.90;;;;;;4427023;28;656940;-75
2023/11/10 01:06:57;;;;;;;14.67;6.23;;;7.20;99.90;;;;;;4426735;28;656656;-74
2023/11/10 01:09:46;;;;;;;15.57;6.10;;;7.20;99.90;;;;;;4402664;28;657515;-74
2023/11/10 01:12:33;;;;;;;11.13;5.40;;;7.20;99.90;;;;;;4401548;28;656396;-75
2023/11/10 01:15:20;;;;;;;14.53;6.30;;;7.10;99.90;;;;;;4421813;28;656799;-75
2023/11/10 01:18:08;;;;;;;13.90;6.37;;;7.10;99.90;;;;;;4405589;28;656478;-74
2023/11/10 01:20:56;;;;;;;15.53;6.70;;;7.10;99.90;;;;;;4426856;28;657617;-74
2023/11/10 01:23:44;;;;;;;14.00;6.43;;;6.90;99.90;;;;;;4395647;28;656193;-74
2023/11/10 01:26:33;;;;;;;13.13;6.27;;;6.90;99.90;;;;;;4430499;28;656601;-74
2023/11/10 01:29:20;;;;;;;11.13;5.97;;;6.80;99.90;;;;;;4393970;28;657259;-74
2023/11/10 01:32:08;;;;;;;12.60;5.93;;;6.80;99.90;;;;;;4395906;28;656766;-74
2023/11/10 01:34:55;;;;;;;14.00;6.00;;;6.70;99.90;;;;;;4428182;28;657747;-74
2023/11/10 01:37:42;;;;;;;12.53;5.40;;;6.70;99.90;;;;;;4405796;28;657386;-74
2023/11/10 01:40:37;;;;;;;12.40;6.17;;;6.70;99.90;;;;;;4424381;28;657470;-74
2023/11/10 01:43:26;;;;;;;12.63;5.60;;;6.60;99.90;;;;;;4399163;28;656791;-74
2023/11/10 01:46:40;;;;;;;12.43;5.50;;;6.60;99.90;;;;;;4400082;28;656936;-74
2023/11/10 01:49:28;;;;;;;9.63;5.27;;;6.50;99.90;;;;;;4385000;28;656504;-74
2023/11/10 01:52:16;;;;;;;12.70;5.77;;;6.40;99.90;;;;;;4417509;28;656613;-74
2023/11/10 01:55:03;;;;;;;11.73;5.97;;;6.40;99.90;;;;;;4398096;28;656384;-74
2023/11/10 01:57:51;;;;;;;12.23;5.68;;;6.30;99.90;;;;;;4409816;28;657721;-74
2023/11/10 02:00:39;;;;;;;11.10;5.87;;;6.30;99.90;;;;;;4397784;28;656828;-74
2023/11/10 02:03:26;;;;;;;17.73;6.47;;;6.20;99.90;;;;;;4425190;28;656865;-74
2023/11/10 02:06:14;;;;;;;13.20;6.80;;;6.20;99.90;;;;;;4391675;28;657037;-74
2023/11/10 02:09:01;;;;;;;14.90;6.43;;;6.20;99.90;;;;;;4425042;28;657542;-75
2023/11/10 02:11:48;;;;;;;14.33;6.10;;;6.20;99.90;;;;;;4413334;28;656648;-74
2023/11/10 02:14:36;;;;;;;15.90;6.43;;;6.20;99.90;;;;;;4421966;28;657140;-74
2023/11/10 02:17:25;;;;;;;18.33;6.27;;;6.20;99.90;;;;;;4399978;28;656883;-74
2023/11/10 02:20:13;;;;;;;14.70;6.00;;;6.20;99.90;;;;;;4418831;28;656808;-74
2023/11/10 02:23:00;;;;;;;14.40;6.80;;;6.20;99.90;;;;;;4420888;28;657482;-74
2023/11/10 02:25:52;;;;;;;11.27;6.60;;;6.30;99.90;;;;;;4400239;28;656377;-74
2023/11/10 02:28:41;;;;;;;13.23;5.57;;;6.30;99.90;;;;;;4400970;28;657352;-74
2023/11/10 02:31:28;;;;;;;11.50;5.33;;;6.30;99.90;;;;;;4402012;28;656842;-74
2023/11/10 02:34:15;;;;;;;11.93;5.73;;;6.40;99.90;;;;;;4421449;28;657346;-74
2023/11/10 02:37:03;;;;;;;17.43;5.07;;;6.50;99.90;;;;;;4401647;28;656115;-74
2023/11/10 02:39:50;;;;;;;10.40;5.30;;;6.60;99.90;;;;;;4419289;28;657097;-74
2023/11/10 02:42:39;;;;;;;10.47;5.00;;;6.70;99.90;;;;;;4406989;28;656875;-74
2023/11/10 02:45:26;;;;;;;9.70;4.70;;;6.90;99.90;;;;;;4424834;28;656157;-74
2023/11/10 02:48:13;;;;;;;8.20;4.23;;;7.00;99.90;;;;;;4401375;28;655662;-74
2023/11/10 02:51:01;;;;;;;7.97;4.13;;;7.10;99.90;;;;;;4424028;28;656411;-74
2023/11/10 02:53:48;;;;;;;6.67;3.53;;;7.20;99.90;;;;;;4400693;28;655780;-74
2023/11/10 02:56:35;;;;;;;11.83;3.60;;;7.70;99.90;;;;;;4426243;28;656528;-74
2023/11/10 02:59:24;;;;;;;6.30;3.20;;;7.80;99.90;;;;;;4401920;28;657205;-74
2023/11/10 03:02:14;;;;;;;6.47;3.47;;;7.90;99.90;;;;;;4414797;28;655963;-74
2023/11/10 03:05:01;;;;;;;6.53;3.63;;;7.90;99.90;;;;;;4399083;28;655538;-74
2023/11/10 03:07:49;;;;;;;8.73;4.17;;;7.90;99.90;;;;;;4398084;28;655451;-75
2023/11/10 03:10:36;;;;;;;6.77;3.77;;;7.80;99.90;;;;;;4416391;28;655317;-74
2023/11/10 03:13:25;;;;;;;5.65;3.70;;;7.80;99.90;;;;;;4399020;28;656131;-74
2023/11/10 03:16:14;;;;;;;6.50;3.73;;;7.70;99.90;;;;;;4403608;28;655949;-74
2023/11/10 03:19:01;;;;;;;9.17;4.23;;;7.60;99.90;;;;;;4426793;28;655694;-74
2023/11/10 03:21:48;;;;;;;6.10;3.97;;;7.50;99.90;;;;;;4409290;28;655576;-74
2023/11/10 03:24:35;;;;;;;12.07;4.77;;;7.50;99.90;;;;;;4425006;28;656452;-75
2023/11/10 03:27:23;;;;;;;7.40;4.33;;;7.30;99.90;;;;;;4401330;28;656186;-74
2023/11/10 03:30:11;;;;;;;10.43;4.10;;;7.10;99.90;;;;;;4427731;28;656250;-74
2023/11/10 03:33:00;;;;;;;9.40;4.07;;;7.00;99.90;;;;;;4402034;28;656995;-74
2023/11/10 03:35:47;;;;;;;10.47;4.33;;;7.00;99.90;;;;;;4407941;28;656320;-74
2023/11/10 03:38:35;;;;;;;11.43;4.03;;;6.90;99.90;;;;;;4422971;28;657184;-74
2023/11/10 03:41:22;;;;;;;9.37;4.20;;;6.80;99.90;;;;;;4419092;28;656351;-74
2023/11/10 03:44:10;;;;;;;10.17;4.07;;;6.70;99.90;;;;;;4426607;28;655908;-74
2023/11/10 03:46:57;;;;;;;9.10;3.60;;;6.70;99.90;;;;;;4422832;28;656413;-74
2023/11/10 03:49:46;;;;;;;10.87;3.90;;;6.60;99.90;;;;;;4393293;28;656705;-74
2023/11/10 03:52:33;;;;;;;10.90;4.23;;;6.40;99.90;;;;;;4404337;28;656873;-74
2023/11/10 03:55:20;;;;;;;12.37;4.53;;;6.30;99.90;;;;;;4422766;28;656551;-74
2023/11/10 03:58:08;;;;;;;6.53;3.90;;;6.20;99.90;;;;;;4408954;28;657514;-74
2023/11/10 04:00:55;;;;;;;7.70;3.80;;;6.20;99.90;;;;;;4426311;28;656133;-74
2023/11/10 04:03:43;;;;;;;8.83;4.13;;;6.10;99.90;;;;;;4415711;28;655250;-74
2023/11/10 04:06:31;;;;;;;9.10;4.33;;;6.10;99.90;;;;;;4424023;28;657000;-74
2023/11/10 04:09:19;;;;;;;8.83;3.83;;;5.90;99.90;;;;;;4398055;28;655359;-74
2023/11/10 04:12:08;;;;;;;8.40;4.43;;;5.90;99.90;;;;;;4431002;28;656406;-74
2023/11/10 04:14:55;;;;;;;11.83;6.70;;;5.90;99.90;;;;;;4410018;28;655649;-74
2023/11/10 04:17:42;;;;;;;18.00;8.37;;;5.90;99.90;;;;;;4411689;28;657037;-74
2023/11/10 04:20:30;;;;;;;10.30;5.23;;;5.80;99.90;;;;;;4423003;28;657045;-74
2023/11/10 04:23:18;;;;;;;12.93;6.20;;;5.70;99.90;;;;;;4427631;28;656318;-74
2023/11/10 04:26:06;;;;;;;13.20;5.90;;;5.70;99.90;;;;;;4420708;28;657105;-74
2023/11/10 04:28:53;;;;;;;11.43;6.03;;;5.50;99.90;;;;;;4406113;28;657289;-74
2023/11/10 04:31:41;;;;;;;13.53;5.53;;;5.40;99.90;;;;;;4422881;28;657413;-74
2023/11/10 04:34:28;;;;;;;11.63;5.77;;;5.40;99.90;;;;;;4408375;28;656945;-74
2023/11/10 04:37:16;;;;;;;11.23;5.70;;;5.40;99.90;;;;;;4427559;28;657639;-74
2023/11/10 04:40:07;;;;;;;13.03;6.10;;;5.40;99.90;;;;;;4409868;28;656831;-74
2023/11/10 04:42:55;;;;;;;10.77;4.43;;;5.30;99.90;;;;;;4407875;28;657062;-74
2023/11/10 04:45:43;;;;;;;8.20;4.83;;;5.20;99.90;;;;;;4401488;28;656639;-74
2023/11/10 04:48:30;;;;;;;9.73;4.13;;;5.20;99.90;;;;;;4422098;28;656512;-74
2023/11/10 04:51:17;;;;;;;9.83;4.30;;;5.10;99.90;;;;;;4424693;28;655100;-74
2023/11/10 04:54:05;;;;;;;11.20;4.80;;;5.10;99.90;;;;;;4427319;28;655870;-74
2023/11/10 04:56:54;;;;;;;6.97;3.63;;;5.20;99.90;;;;;;4420449;28;657410;-74
2023/11/10 04:59:42;;;;;;;8.67;4.50;;;5.10;99.90;;;;;;4431822;28;655590;-75
2023/11/10 05:02:29;;;;;;;7.00;4.27;;;5.10;99.90;;;;;;4400998;28;655336;-74
2023/11/10 05:05:18;;;;;;;6.40;4.13;;;5.20;99.90;;;;;;4412882;28;656064;-75
2023/11/10 05:08:05;;;;;;;7.90;4.30;;;5.20;99.90;;;;;;4402179;28;657169;-74
2023/11/10 05:10:53;;;;;;;8.80;4.40;;;5.10;99.90;;;;;;4411086;28;655721;-74
2023/11/10 05:14:05;;;;;;;13.50;4.27;;;5.10;99.90;;;;;;4422161;28;655921;-74
2023/11/10 05:19:53;;;;;;;10.50;5.22;;;5.10;99.90;;;;;;4241576;29;655999;-74
2023/11/10 05:22:42;;;;;;;14.40;6.00;;;5.00;99.90;;;;;;4401613;28;657654;-74
2023/11/10 05:25:29;;;;;;;18.83;10.97;;;5.00;99.90;;;;;;4401831;28;656770;-74
2023/11/10 05:28:16;;;;;;;20.30;10.00;;;5.00;99.90;;;;;;4420876;28;658066;-74
2023/11/10 05:31:05;;;;;;;15.90;7.53;;;5.00;99.90;;;;;;4397394;28;657708;-74
2023/11/10 05:33:55;;;;;;;15.37;6.13;;;5.00;99.90;;;;;;4408345;28;656596;-74
2023/11/10 05:36:42;;;;;;;14.67;7.10;;;5.00;99.90;;;;;;4406017;28;657249;-74
2023/11/10 05:39:30;;;;;;;11.87;5.77;;;4.90;99.90;;;;;;4427645;28;657481;-74
2023/11/10 05:42:17;;;;;;;14.82;5.95;;;4.90;99.90;;;;;;4408689;28;656519;-74
2023/11/10 05:45:06;;;;;;;12.53;5.20;;;4.90;99.90;;;;;;4425976;28;656900;-74
2023/11/10 05:47:54;;;;;;;18.77;4.70;;;4.90;99.90;;;;;;4402302;28;656409;-74
2023/11/10 05:50:42;;;;;;;8.75;4.80;;;4.80;99.90;;;;;;4425091;28;656744;-74
2023/11/10 05:53:29;;;;;;;14.33;7.77;;;4.90;99.90;;;;;;4407486;28;655208;-74
2023/11/10 05:56:16;;;;;;;87.37;43.97;;;5.00;99.90;;;;;;4420764;28;656100;-74
2023/11/10 05:59:04;;;;;;;79.07;38.30;;;5.00;99.90;;;;;;4399003;28;658022;-74
2023/11/10 06:01:51;;;;;;;31.10;17.23;;;5.00;99.90;;;;;;4418836;28;657303;-74
2023/11/10 06:04:40;;;;;;;18.83;11.07;;;5.00;99.90;;;;;;4405144;28;658367;-74
2023/11/10 06:07:27;;;;;;;55.50;27.73;;;5.00;99.90;;;;;;4412899;28;657804;-75
2023/11/10 06:10:17;;;;;;;67.67;31.77;;;5.00;99.90;;;;;;4424209;28;658853;-74
2023/11/10 06:13:04;;;;;;;44.53;20.67;;;5.10;99.90;;;;;;4399520;28;659077;-74
2023/11/10 06:15:52;;;;;;;38.87;16.67;;;5.10;99.90;;;;;;4420137;28;658321;-74
2023/11/10 06:18:40;;;;;;;44.00;22.40;;;5.10;99.90;;;;;;4399746;28;658942;-74
2023/11/10 06:21:29;;;;;;;45.90;25.30;;;5.20;99.90;;;;;;4419473;28;657359;-74
2023/11/10 06:24:16;;;;;;;43.53;22.03;;;5.20;99.90;;;;;;4401509;28;658346;-74
2023/11/10 06:27:03;;;;;;;41.77;18.53;;;5.30;99.90;;;;;;4400163;28;657515;-74
2023/11/10 06:29:50;;;;;;;19.17;7.07;;;5.30;99.90;;;;;;4428044;28;658504;-74
2023/11/10 06:32:38;;;;;;;22.30;10.53;;;5.40;99.90;;;;;;4400418;28;656715;-74
2023/11/10 06:35:25;;;;;;;14.47;7.73;;;5.40;99.90;;;;;;4423585;28;658093;-75
2023/11/10 06:38:14;;;;;;;17.07;9.13;;;5.50;99.90;;;;;;4399209;28;656743;-75
2023/11/10 06:41:01;;;;;;;13.90;6.60;;;5.50;99.90;;;;;;4427440;28;656767;-74
2023/11/10 06:43:48;;;;;;;26.00;10.63;;;5.60;99.90;;;;;;4395548;28;656194;-74
2023/11/10 06:46:35;;;;;;;26.07;12.07;;;5.60;99.90;;;;;;4419040;28;657802;-74
2023/11/10 06:49:23;;;;;;;20.53;10.07;;;5.70;99.90;;;;;;4400769;28;658567;-75
2023/11/10 06:52:11;;;;;;;18.57;8.57;;;5.70;99.90;;;;;;4420805;28;658736;-74
2023/11/10 06:54:59;;;;;;;21.83;9.77;;;5.80;99.90;;;;;;4403844;28;656806;-75
2023/11/10 06:57:47;;;;;;;34.13;13.77;;;5.90;99.90;;;;;;4416487;28;656632;-75
2023/11/10 07:00:36;;;;;;;19.07;9.10;;;5.90;99.90;;;;;;4394719;28;659439;-74
2023/11/10 07:03:23;;;;;;;37.97;13.53;;;6.00;99.90;;;;;;4400866;28;657346;-74
2023/11/10 07:06:10;;;;;;;24.13;9.63;;;6.00;99.90;;;;;;4422811;28;658710;-74
2023/11/10 07:08:58;;;;;;;17.37;7.20;;;6.10;99.90;;;;;;4400385;28;656812;-75
2023/11/10 07:11:48;;;;;;;14.97;5.77;;;6.40;99.90;;;;;;4421746;28;657550;-74
2023/11/10 07:14:36;;;;;;;9.67;4.20;;;6.50;99.90;;;;;;4403572;28;657122;-74
2023/11/10 07:17:23;;;;;;;8.13;4.50;;;6.70;99.90;;;;;;4405273;28;655975;-74
2023/11/10 07:20:11;;;;;;;6.67;3.60;;;6.90;99.90;;;;;;4424588;28;656438;-74
2023/11/10 07:22:59;;;;;;;5.65;3.35;;;7.20;99.90;;;;;;4405430;28;655741;-74
2023/11/10 07:25:46;;;;;;;7.53;3.33;;;7.40;99.90;;;;;;4426021;28;656201;-74
2023/11/10 07:28:35;;;;;;;6.80;2.67;;;7.60;99.90;;;;;;4398966;28;655395;-74
2023/11/10 07:31:22;;;;;;;9.23;4.72;;;7.80;99.90;;;;;;4407425;28;655623;-74
2023/11/10 07:34:10;;;;;;;5.20;3.20;;;8.00;99.90;;;;;;4428242;28;656125;-74
2023/11/10 07:36:58;;;;;;;6.87;3.00;;;8.20;99.90;;;;;;4419290;28;655267;-74
2023/11/10 07:39:45;;;;;;;14.27;5.13;;;8.30;99.90;;;;;;4430520;28;656942;-74
2023/11/10 07:42:32;;;;;;;10.57;4.37;;;8.40;99.90;;;;;;4400073;28;656290;-74
2023/11/10 07:45:21;;;;;;;8.47;3.60;;;8.50;99.90;;;;;;4422819;28;657524;-74
2023/11/10 07:48:08;;;;;;;8.07;4.00;;;8.60;99.90;;;;;;4407730;28;656873;-74
2023/11/10 07:50:56;;;;;;;7.57;3.30;;;8.70;99.90;;;;;;4426866;28;655682;-74
2023/11/10 07:53:44;;;;;;;7.20;2.83;;;8.80;99.90;;;;;;4407780;28;655374;-75
2023/11/10 07:56:31;;;;;;;7.33;2.93;;;9.10;99.90;;;;;;4421009;28;656196;-74
2023/11/10 07:59:18;;;;;;;9.00;2.90;;;9.40;99.90;;;;;;4395879;28;655740;-75
2023/11/10 08:02:07;;;;;;;6.90;3.00;;;9.70;99.90;;;;;;4425105;28;655265;-74
2023/11/10 08:04:54;;;;;;;7.63;3.30;;;10.10;99.90;;;;;;4406749;28;656086;-74
2023/11/10 08:07:41;;;;;;;8.33;3.30;;;10.70;99.90;;;;;;4425591;28;657443;-74
2023/11/10 08:10:29;;;;;;;6.53;3.30;;;11.10;99.90;;;;;;4403043;28;657661;-74
2023/11/10 08:13:16;;;;;;;9.13;4.43;;;11.30;99.90;;;;;;4420066;28;656938;-74
2023/11/10 08:16:04;;;;;;;11.77;5.40;;;11.30;99.90;;;;;;4397675;28;657097;-74
2023/11/10 08:18:53;;;;;;;15.10;5.70;;;11.70;99.90;;;;;;4425476;28;657346;-74
2023/11/10 08:21:40;;;;;;;9.87;4.30;;;12.30;99.90;;;;;;4399528;28;658449;-74
2023/11/10 08:24:30;;;;;;;9.50;3.40;;;12.70;99.90;;;;;;4418564;28;656795;-74
2023/11/10 08:27:17;;;;;;;9.90;3.10;;;12.60;99.90;;;;;;4404147;28;656761;-74
2023/11/10 08:30:09;;;;;;;8.73;4.10;;;12.30;99.90;;;;;;4427081;28;656596;-74
2023/11/10 08:32:56;;;;;;;9.10;4.10;;;11.90;99.90;;;;;;4401694;28;657426;-74
2023/11/10 08:35:45;;;;;;;8.77;4.40;;;11.60;99.90;;;;;;4397808;28;657358;-74
2023/11/10 08:38:32;;;;;;;14.70;5.57;;;11.70;99.90;;;;;;4416494;28;656794;-74
2023/11/10 08:41:20;;;;;;;13.70;5.50;;;11.80;99.90;;;;;;4422735;28;657359;-75
2023/11/10 08:44:08;;;;;;;15.20;4.90;;;11.80;99.90;;;;;;4424430;28;657039;-74
2023/11/10 08:46:55;;;;;;;13.10;5.00;;;11.80;99.90;;;;;;4423472;28;658587;-74
2023/11/10 08:49:45;;;;;;;9.17;5.03;;;11.80;99.90;;;;;;4418400;28;657578;-74
2023/11/10 08:52:34;;;;;;;11.50;4.90;;;11.90;99.90;;;;;;4405178;28;657320;-75
2023/11/10 08:55:22;;;;;;;12.27;5.27;;;11.90;99.90;;;;;;4419617;28;657472;-74
2023/11/10 08:58:09;;;;;;;10.67;5.10;;;11.90;99.90;;;;;;4399679;28;658818;-74
2023/11/10 09:00:58;;;;;;;8.33;4.50;;;12.00;99.90;;;;;;4422259;28;658464;-74
2023/11/10 09:03:45;;;;;;;12.97;4.40;;;12.10;99.90;;;;;;4402525;28;659571;-74
2023/11/10 09:06:33;;;;;;;7.23;3.63;;;12.30;99.90;;;;;;4417241;28;657588;-74
2023/11/10 09:09:22;;;;;;;6.23;3.30;;;12.50;99.90;;;;;;4420235;28;657079;-74
2023/11/10 09:12:09;;;;;;;7.60;3.77;;;12.70;99.90;;;;;;4410753;28;656922;-74
2023/11/10 09:14:56;;;;;;;8.37;3.50;;;12.90;99.90;;;;;;4425398;28;656705;-74
2023/11/10 09:17:43;;;;;;;7.90;3.70;;;13.10;99.90;;;;;;4403506;28;656624;-74
2023/11/10 09:20:31;;;;;;;9.30;3.60;;;12.90;99.90;;;;;;4415399;28;657412;-74
2023/11/10 09:23:18;;;;;;;8.20;3.87;;;12.70;99.90;;;;;;4399628;28;656425;-74
2023/11/10 09:26:07;;;;;;;9.27;4.30;;;12.40;99.90;;;;;;4426493;28;655976;-74
2023/11/10 09:28:54;;;;;;;6.33;3.67;;;12.40;99.90;;;;;;4401134;28;656521;-74
2023/11/10 09:31:41;;;;;;;6.43;3.20;;;12.70;99.90;;;;;;4425541;28;656641;-74
2023/11/10 09:34:29;;;;;;;5.37;3.30;;;12.70;99.90;;;;;;4401426;28;656526;-74
2023/11/10 09:37:16;;;;;;;5.40;3.17;;;13.10;99.90;;;;;;4424243;28;656636;-74
2023/11/10 09:40:04;;;;;;;7.40;3.07;;;13.40;99.90;;;;;;4400929;28;656851;-74
2023/11/10 09:42:56;;;;;;;11.57;4.33;;;13.20;99.90;;;;;;4427565;28;657021;-74
2023/11/10 09:45:44;;;;;;;11.87;4.53;;;13.40;99.90;;;;;;4393250;28;657705;-74
2023/11/10 09:48:31;;;;;;;12.47;4.67;;;13.40;99.90;;;;;;4422918;28;658005;-74
2023/11/10 09:51:19;;;;;;;10.93;4.23;;;13.60;99.90;;;;;;4402132;28;658592;-75
2023/11/10 09:54:06;;;;;;;11.43;4.70;;;13.70;99.90;;;;;;4414341;28;659224;-75
2023/11/10 09:56:53;;;;;;;9.83;4.43;;;13.90;99.90;;;;;;4393300;28;658474;-74
2023/11/10 09:59:42;;;;;;;9.03;4.37;;;13.70;99.90;;;;;;4419711;28;657639;-74
2023/11/10 10:02:29;;;;;;;9.25;4.40;;;13.50;99.90;;;;;;4403643;28;657481;-74
2023/11/10 10:05:17;;;;;;;11.90;4.70;;;13.30;99.90;;;;;;4424205;28;657062;-74
2023/11/10 10:08:04;;;;;;;11.37;4.90;;;13.30;99.90;;;;;;4403522;28;659014;-74
2023/11/10 10:10:51;;;;;;;12.80;4.47;;;13.00;99.90;;;;;;4423050;28;658323;-75
2023/11/10 10:13:40;;;;;;;11.30;4.63;;;12.90;99.90;;;;;;4394960;28;658294;-75
2023/11/10 10:16:29;;;;;;;7.67;3.47;;;13.00;99.90;;;;;;4407426;28;657670;-74
2023/11/10 10:19:22;;;;;;;9.20;4.00;;;12.90;99.90;;;;;;4419548;28;656818;-74
2023/11/10 10:22:09;;;;;;;6.20;3.20;;;12.50;99.90;;;;;;4392315;28;657311;-74
2023/11/10 10:24:57;;;;;;;8.40;3.60;;;12.30;99.90;;;;;;4425238;28;655660;-74
2023/11/10 10:27:46;;;;;;;3.93;1.87;;;12.20;99.90;;;;;;4404718;28;657506;-74
2023/11/10 10:30:33;;;;;;;24.10;2.63;;;12.00;99.90;;;;;;4407083;28;658496;-74
2023/11/10 10:33:22;;;;;;;9.27;3.83;;;11.80;99.90;;;;;;4427293;28;658149;-74
2023/11/10 10:36:10;;;;;;;5.37;2.20;;;11.80;99.90;;;;;;4407306;28;657553;-74
2023/11/10 10:38:58;;;;;;;6.13;2.80;;;11.90;99.90;;;;;;4409789;28;657521;-74
2023/11/10 10:41:46;;;;;;;7.60;3.00;;;11.90;99.90;;;;;;4413481;28;657934;-74
2023/11/10 10:44:35;;;;;;;7.27;3.07;;;11.70;99.90;;;;;;4399733;28;657179;-74
2023/11/10 10:47:22;;;;;;;6.33;3.10;;;11.80;99.90;;;;;;4399065;28;656982;-74
2023/11/10 10:50:11;;;;;;;6.87;2.93;;;12.00;99.90;;;;;;4425991;28;656526;-75
2023/11/10 10:52:59;;;;;;;6.60;2.67;;;11.90;99.90;;;;;;4402833;28;656545;-75
2023/11/10 10:55:50;;;;;;;6.53;2.70;;;11.90;99.90;;;;;;4423330;28;657242;-74
2023/11/10 10:58:38;;;;;;;4.87;2.70;;;11.90;99.90;;;;;;4377801;28;656545;-74
2023/11/10 11:01:25;;;;;;;6.70;2.50;;;12.00;99.90;;;;;;4423178;28;657665;-75
2023/11/10 11:04:29;;;;;;;6.87;3.03;;;11.90;99.90;;;;;;4408277;28;656837;-74
2023/11/10 11:07:27;;;;;;;10.00;4.60;;;11.60;99.90;;;;;;4395597;28;656447;-73
2023/11/10 11:10:32;;;;;;;7.40;2.90;;;11.60;99.90;;;;;;4380200;28;658338;-75
2023/11/10 11:13:39;;;;;;;8.67;3.33;;;11.60;99.90;;;;;;4399526;28;657615;-75
2023/11/10 11:16:37;;;;;;;5.93;2.63;;;11.70;99.90;;;;;;4399867;28;657301;-74
2023/11/10 11:19:25;;;;;;;6.20;3.20;;;11.80;99.90;;;;;;4379418;28;657315;-74
2023/11/10 11:22:13;;;;;;;8.43;2.93;;;11.50;99.90;;;;;;4401432;28;657137;-74
2023/11/10 11:25:08;;;;;;;8.37;3.03;;;11.50;99.90;;;;;;4420883;28;657050;-74
2023/11/10 11:27:59;;;;;;;5.60;3.00;;;11.60;99.90;;;;;;4395862;28;656470;-74
2023/11/10 11:30:46;;;;;;;6.33;3.23;;;11.50;99.90;;;;;;4392973;28;656836;-74
2023/11/10 11:33:34;;;;;;;7.70;2.90;;;11.50;99.90;;;;;;4401047;28;657014;-74
2023/11/10 11:36:22;;;;;;;4.60;2.30;;;11.50;99.90;;;;;;4415811;28;656402;-74
2023/11/10 11:39:15;;;;;;;5.33;2.83;;;11.40;99.90;;;;;;4393515;28;657627;-74
2023/11/10 11:42:07;;;;;;;4.95;2.55;;;11.20;99.90;;;;;;4398554;28;656325;-74
2023/11/10 11:44:56;;;;;;;5.30;2.47;;;11.30;99.90;;;;;;4398405;28;657041;-74
2023/11/10 11:47:44;;;;;;;4.00;2.10;;;11.10;99.90;;;;;;4397977;28;656562;-75
2023/11/10 11:50:31;;;;;;;4.67;2.13;;;10.90;99.90;;;;;;4409822;28;656970;-74
2023/11/10 11:53:19;;;;;;;6.97;1.97;;;10.80;99.90;;;;;;4401307;28;657107;-74
2023/11/10 11:56:07;;;;;;;4.87;2.33;;;10.60;99.90;;;;;;4425283;28;657533;-74
2023/11/10 11:58:56;;;;;;;4.43;2.17;;;10.50;99.90;;;;;;4397117;28;657618;-74
2023/11/10 12:01:43;;;;;;;6.93;2.20;;;10.40;99.90;;;;;;4402571;28;656785;-74
2023/11/10 12:04:31;;;;;;;4.67;2.30;;;10.20;99.90;;;;;;4420443;28;656391;-73
2023/11/10 12:07:18;;;;;;;3.60;2.20;;;10.10;99.90;;;;;;4403866;28;656478;-74
2023/11/10 12:10:08;;;;;;;4.90;1.47;;;9.80;99.90;;;;;;4418501;28;656348;-74
2023/11/10 12:12:55;;;;;;;4.00;2.20;;;9.90;99.90;;;;;;4399674;28;656546;-74
2023/11/10 12:15:44;;;;;;;2.80;1.97;;;9.70;99.90;;;;;;4398734;28;655812;-73
2023/11/10 12:18:35;;;;;;;4.50;2.13;;;9.60;99.90;;;;;;4428666;28;655464;-74
2023/11/10 12:21:22;;;;;;;4.13;2.90;;;9.60;99.90;;;;;;4399697;28;655671;-74
2023/11/10 12:24:10;;;;;;;6.67;3.30;;;9.50;99.90;;;;;;4407563;28;655986;-74
2023/11/10 12:26:59;;;;;;;6.00;3.03;;;9.50;99.90;;;;;;4423610;28;656031;-73
2023/11/10 12:29:47;;;;;;;7.73;3.03;;;9.50;99.90;;;;;;4430072;28;655842;-74
2023/11/10 12:32:39;;;;;;;6.50;3.03;;;9.50;99.90;;;;;;4408721;28;656303;-74
2023/11/10 12:35:26;;;;;;;7.17;3.13;;;9.50;99.90;;;;;;4402295;28;655661;-74
2023/11/10 12:38:13;;;;;;;6.33;2.93;;;9.30;99.90;;;;;;4397735;28;655823;-74
2023/11/10 12:41:01;;;;;;;7.07;2.90;;;9.30;99.90;;;;;;4421384;28;656104;-74
2023/11/10 12:43:49;;;;;;;6.33;3.20;;;9.30;99.90;;;;;;4402946;28;655837;-74
2023/11/10 12:46:36;;;;;;;6.87;3.07;;;9.40;99.90;;;;;;4423382;28;655892;-74
2023/11/10 12:49:26;;;;;;;8.13;3.30;;;9.50;99.90;;;;;;4406085;28;655319;-74
2023/11/10 12:52:15;;;;;;;8.17;3.43;;;9.40;99.90;;;;;;4400156;28;655692;-74
2023/11/10 12:55:03;;;;;;;10.13;4.17;;;9.40;99.90;;;;;;4405489;28;655737;-74
2023/11/10 12:57:50;;;;;;;8.57;4.17;;;9.50;99.90;;;;;;4429209;28;657981;-74
2023/11/10 13:00:38;;;;;;;7.57;3.90;;;9.50;99.90;;;;;;4416659;28;655318;-74
2023/11/10 13:03:25;;;;;;;7.90;4.33;;;9.50;99.90;;;;;;4426532;28;656687;-74
2023/11/10 13:06:15;;;;;;;7.80;4.03;;;9.50;99.90;;;;;;4411322;28;655607;-74
2023/11/10 13:09:02;;;;;;;9.17;3.97;;;9.50;99.90;;;;;;4424634;28;656388;-74
2023/11/10 13:11:50;;;;;;;6.63;3.07;;;9.60;99.90;;;;;;4408752;28;655668;-74
2023/11/10 13:14:37;;;;;;;7.10;3.30;;;9.60;99.90;;;;;;4421408;28;655885;-74
2023/11/10 13:17:26;;;;;;;5.37;2.90;;;9.60;99.90;;;;;;4425768;28;655454;-74
2023/11/10 13:20:13;;;;;;;6.40;3.30;;;9.60;99.90;;;;;;4403906;28;656275;-74
2023/11/10 13:23:02;;;;;;;5.70;3.60;;;9.50;99.90;;;;;;4431278;28;656830;-74
2023/11/10 13:25:49;;;;;;;7.83;4.00;;;9.60;99.90;;;;;;4403297;28;655654;-74
2023/11/10 13:28:36;;;;;;;10.60;3.70;;;9.60;99.90;;;;;;4426668;28;655727;-74
2023/11/10 13:31:28;;;;;;;5.00;3.27;;;9.60;99.90;;;;;;4408300;28;656503;-74
2023/11/10 13:34:18;;;;;;;10.03;3.47;;;9.60;99.90;;;;;;4406890;28;655873;-74
2023/11/10 13:37:08;;;;;;;10.03;3.63;;;9.60;99.90;;;;;;4401401;28;656963;-74
2023/11/10 13:39:58;;;;;;;6.87;3.63;;;9.60;99.90;;;;;;4396574;28;656481;-74
2023/11/10 13:42:45;;;;;;;7.90;3.57;;;9.50;99.90;;;;;;4402660;28;656059;-74
2023/11/10 13:45:33;;;;;;;8.70;4.20;;;9.50;99.90;;;;;;4415947;28;656130;-74
2023/11/10 13:48:20;;;;;;;9.00;4.03;;;9.50;99.90;;;;;;4428059;28;656153;-74
2023/11/10 13:51:07;;;;;;;9.60;4.60;;;9.40;99.90;;;;;;4409326;28;655685;-74
2023/11/10 13:53:55;;;;;;;9.07;4.83;;;9.30;99.90;;;;;;4433679;28;656073;-74
2023/11/10 13:56:45;;;;;;;12.73;5.97;;;9.30;99.90;;;;;;4428204;28;655686;-74
2023/11/10 13:59:39;;;;;;;14.10;7.30;;;9.30;99.90;;;;;;4410221;28;656354;-74
2023/11/10 14:02:26;;;;;;;15.83;8.70;;;9.20;99.90;;;;;;4403273;28;657262;-74
2023/11/10 14:05:14;;;;;;;14.40;7.60;;;9.20;99.90;;;;;;4408615;28;657050;-74
2023/11/10 14:08:01;;;;;;;21.67;10.57;;;9.10;99.90;;;;;;4427409;28;657980;-74
2023/11/10 14:10:48;;;;;;;19.53;7.37;;;9.20;99.90;;;;;;4403386;28;657437;-74
2023/11/10 14:13:37;;;;;;;18.93;8.13;;;9.10;99.90;;;;;;4422016;28;657163;-74
2023/11/10 14:16:25;;;;;;;15.10;6.67;;;9.10;99.90;;;;;;4403462;28;657618;-74
2023/11/10 14:19:12;;;;;;;12.43;6.57;;;9.10;99.90;;;;;;4418747;28;656237;-74
2023/11/10 14:22:00;;;;;;;12.93;5.10;;;9.10;99.90;;;;;;4426428;28;657599;-74
2023/11/10 14:24:47;;;;;;;10.63;5.03;;;9.10;99.90;;;;;;4425793;28;656490;-74
2023/11/10 14:27:35;;;;;;;10.17;5.27;;;9.00;99.90;;;;;;4425504;28;656912;-74
2023/11/10 14:30:24;;;;;;;9.80;4.60;;;9.00;99.90;;;;;;4405941;28;656702;-74